Pagrindinis puslapis
METAR-TAF:

METAR-TAF

Oro uostai :

Zagrebas, Kroatija

platuma: 45-44N, ilguma: 016-04E, Aukštis: 106 m

Dabartinis oras

Ataskaita buvo paskelbta 16 minutes, ne 22:00 UTC
Vėjas 2 kt iš Vakarų/Pietvakarių
Temperatūra 6°C
Drėgmė 87%
Slėgis 1027 hPa
Matomumas 10 km arba daugiau
nėra debesų žemiau 1500 m ir nėra kamuolinių lietaus debesų

METAR: LDZA 202200Z 25002KT CAVOK 06/04 Q1027 NOSIG

Laikas: 00:16 (22:16 UTC)

Prognozė

Ataskaita buvo paskelbta 4 valandos ir 51 minutes, ne 17:25 UTC
Prognozė galioja nuo 20 metu 18 UTC su 21 metu 18 UTC
Vėjas 5 kt iš Rytų/Šiaurės Rytų
Matomumas 10 km arba daugiau
nėra debesų žemiau 1500 m ir nėra kamuolinių lietaus debesų

TAF: LDZA 201725Z 2018/2118 07005KT CAVOK TX19/2113Z TN03/2105Z

Orai ataskaitas ir orų prognozės (METAR, TAF).

turimą stotys yra geltonos ir raudonos taškus žemėlapyje.

Perkelti pele per norėdami pamatyti stoties vardą.

Tada spustelėkite, norėdami matyti oro stebėjimo ir prognozės.

Norėdami pakeisti žemėlapį: spustelėkite ant žalios mygtukų su juodo kryžiaus žemyn,; žalią mygtuką su brūkšneliu, jei norite nutolinti; arba žalių rodyklių gretimoms žemėlapius.


METAR-TAF: